Time;durP1;ratioP1;P1;durP2;ratioP2;P2;SDS_P1;SDS_P2;PMS_P1;PMS_P2;Temp;Humidity;BMP_temperature;BMP_pressure;BME280_temperature;BME280_humidity;BME280_pressure;Samples;Min_cycle;Max_cycle;Signal;HPM_P1;HPM_P2
2021/01/25 00:01:39;;;;;;;8.23;5.72;;;6.30;99.90;;;;;;4991861;28;20380;-76
2021/01/25 00:04:04;;;;;;;9.38;5.65;;;6.10;99.90;;;;;;4991828;28;20070;-75
2021/01/25 00:06:32;;;;;;;6.95;4.15;;;6.00;99.90;;;;;;4991488;28;20054;-76
2021/01/25 00:08:58;;;;;;;6.05;4.45;;;5.90;99.90;;;;;;4991700;28;20030;-75
2021/01/25 00:11:24;;;;;;;4.22;3.00;;;5.60;99.90;;;;;;4991664;28;20095;-75
2021/01/25 00:13:49;;;;;;;4.93;3.20;;;5.40;99.90;;;;;;4991669;28;20530;-75
2021/01/25 00:16:15;;;;;;;4.55;3.42;;;5.50;99.90;;;;;;5059272;28;20066;-75
2021/01/25 00:18:41;;;;;;;5.47;3.40;;;5.50;99.90;;;;;;4991656;28;20065;-75
2021/01/25 00:21:07;;;;;;;26.00;5.35;;;5.30;99.90;;;;;;4991938;28;20033;-75
2021/01/25 00:23:32;;;;;;;5.28;3.08;;;5.20;99.90;;;;;;4991934;28;20751;-75
2021/01/25 00:25:58;;;;;;;4.93;3.00;;;5.00;99.90;;;;;;4991684;28;20037;-75
2021/01/25 00:28:24;;;;;;;4.20;3.05;;;4.90;99.90;;;;;;4991595;28;20032;-76
2021/01/25 00:30:50;;;;;;;8.02;4.32;;;4.80;99.90;;;;;;4991364;28;20076;-76
2021/01/25 00:33:16;;;;;;;4.45;3.33;;;4.70;99.90;;;;;;4991516;28;20033;-77
2021/01/25 00:35:41;;;;;;;7.35;4.88;;;4.60;99.90;;;;;;4991310;28;20031;-76
2021/01/25 00:38:10;;;;;;;5.32;3.70;;;4.50;99.90;;;;;;4991233;28;20026;-77
2021/01/25 00:40:37;;;;;;;3.83;2.90;;;4.50;99.90;;;;;;4990730;28;20023;-77
2021/01/25 00:43:02;;;;;;;4.70;3.38;;;4.40;99.90;;;;;;4991441;28;20073;-77
2021/01/25 00:45:28;;;;;;;8.70;4.85;;;4.30;99.90;;;;;;4991349;28;20023;-77
2021/01/25 00:47:54;;;;;;;8.25;4.15;;;4.30;99.90;;;;;;4991305;28;20062;-76
2021/01/25 00:50:20;;;;;;;6.65;4.30;;;4.20;99.90;;;;;;4990774;28;20023;-76
2021/01/25 00:52:45;;;;;;;5.70;3.35;;;4.20;99.90;;;;;;4990627;28;20095;-76
2021/01/25 00:55:13;;;;;;;5.78;3.85;;;4.20;99.90;;;;;;4990957;28;20027;-76
2021/01/25 00:57:44;;;;;;;5.88;4.00;;;4.20;99.90;;;;;;4990700;28;20019;-77
2021/01/25 01:00:10;;;;;;;7.35;4.85;;;4.00;99.90;;;;;;4990663;28;20019;-77
2021/01/25 01:02:37;;;;;;;5.30;3.40;;;4.10;99.90;;;;;;4990594;28;20478;-77
2021/01/25 01:05:05;;;;;;;6.90;4.57;;;4.00;99.90;;;;;;4990967;28;20472;-77
2021/01/25 01:07:31;;;;;;;5.75;3.58;;;3.80;99.90;;;;;;4990989;28;20483;-77
2021/01/25 01:09:56;;;;;;;6.63;3.80;;;3.80;99.90;;;;;;4991058;28;20087;-77
2021/01/25 01:12:22;;;;;;;8.27;4.55;;;3.80;99.90;;;;;;4991072;28;20026;-77
2021/01/25 01:14:48;;;;;;;5.00;3.50;;;3.80;99.90;;;;;;4991156;28;20038;-77
2021/01/25 01:17:14;;;;;;;10.63;5.32;;;3.70;99.90;;;;;;4990990;28;20030;-77
2021/01/25 01:19:40;;;;;;;5.90;3.90;;;3.70;99.90;;;;;;4991164;28;20478;-77
2021/01/25 01:22:06;;;;;;;6.88;4.40;;;3.70;99.90;;;;;;4990844;28;20071;-77
2021/01/25 01:24:31;;;;;;;7.15;5.20;;;3.70;99.90;;;;;;4990823;28;20051;-77
2021/01/25 01:26:57;;;;;;;5.20;3.70;;;3.80;99.90;;;;;;4990923;28;20023;-77
2021/01/25 01:29:23;;;;;;;5.65;2.50;;;3.70;99.90;;;;;;4990909;28;20443;-77
2021/01/25 01:31:49;;;;;;;2.97;2.33;;;3.70;99.90;;;;;;4990770;28;20034;-76
2021/01/25 01:34:14;;;;;;;5.18;3.40;;;3.60;99.90;;;;;;4990654;28;20054;-76
2021/01/25 01:36:40;;;;;;;3.33;2.47;;;3.70;99.90;;;;;;4990665;28;20107;-77
2021/01/25 01:39:06;;;;;;;3.30;2.67;;;3.70;99.90;;;;;;5057676;28;20034;-77
2021/01/25 01:41:37;;;;;;;2.88;2.33;;;3.70;99.90;;;;;;4990496;28;20022;-77
2021/01/25 01:44:12;;;;;;;3.95;3.05;;;3.60;99.90;;;;;;4990633;28;20046;-77
2021/01/25 01:46:42;;;;;;;3.72;2.40;;;3.70;99.90;;;;;;4990574;28;20033;-77
2021/01/25 01:49:10;;;;;;;3.63;2.92;;;3.70;99.90;;;;;;4990499;28;20026;-78
2021/01/25 01:51:37;;;;;;;2.88;2.50;;;3.70;99.90;;;;;;4990495;28;20062;-77
2021/01/25 01:54:05;;;;;;;3.03;2.33;;;3.60;99.90;;;;;;4990434;28;20414;-77
2021/01/25 01:56:35;;;;;;;3.17;2.30;;;3.50;99.90;;;;;;4990517;28;20037;-77
2021/01/25 01:59:01;;;;;;;3.20;2.65;;;3.50;99.90;;;;;;4990901;28;20027;-77
2021/01/25 02:01:27;;;;;;;3.65;2.67;;;3.40;99.90;;;;;;4990922;28;20061;-77
2021/01/25 02:03:53;;;;;;;2.80;2.45;;;3.50;99.90;;;;;;4990479;28;20050;-77
2021/01/25 02:06:22;;;;;;;3.47;2.67;;;3.60;99.90;;;;;;4989847;28;20058;-77
2021/01/25 02:08:49;;;;;;;2.65;2.10;;;3.60;99.90;;;;;;4990149;28;20052;-78
2021/01/25 02:11:17;;;;;;;3.40;2.50;;;3.60;99.90;;;;;;4989906;28;20030;-77
2021/01/25 02:13:44;;;;;;;2.67;2.30;;;3.60;99.90;;;;;;5056537;28;20022;-77
2021/01/25 02:16:10;;;;;;;4.07;2.47;;;3.60;99.90;;;;;;4990047;28;20023;-77
2021/01/25 02:18:36;;;;;;;2.70;2.10;;;3.60;99.90;;;;;;4990024;28;20029;-76
2021/01/25 02:21:09;;;;;;;4.38;2.45;;;3.70;99.90;;;;;;4990101;28;20026;-77
2021/01/25 02:23:51;;;;;;;3.50;2.30;;;3.70;99.90;;;;;;4990293;28;20105;-77
2021/01/25 02:26:30;;;;;;;4.03;2.55;;;3.80;99.90;;;;;;4989778;28;20481;-76
2021/01/25 02:28:56;;;;;;;3.10;2.10;;;3.70;99.90;;;;;;4989878;28;20117;-77
2021/01/25 02:31:23;;;;;;;3.00;2.42;;;3.70;99.90;;;;;;4990028;28;20511;-77
2021/01/25 02:33:53;;;;;;;4.65;2.95;;;3.70;99.90;;;;;;4989776;28;20550;-75
2021/01/25 02:36:20;;;;;;;3.83;2.58;;;3.70;99.90;;;;;;4989425;28;20058;-75
2021/01/25 02:38:49;;;;;;;4.22;2.50;;;3.70;99.90;;;;;;4989329;28;20026;-74
2021/01/25 02:41:21;;;;;;;2.58;2.13;;;3.70;99.90;;;;;;4989415;28;20358;-75
2021/01/25 02:43:48;;;;;;;2.80;2.05;;;3.80;99.90;;;;;;4989388;28;20018;-76
2021/01/25 02:46:14;;;;;;;3.00;2.40;;;3.70;99.90;;;;;;4989549;28;20481;-76
2021/01/25 02:48:40;;;;;;;2.83;2.10;;;3.70;99.90;;;;;;4989341;28;20419;-76
2021/01/25 02:51:06;;;;;;;4.07;2.50;;;3.70;99.90;;;;;;4989462;28;20027;-76
2021/01/25 02:53:32;;;;;;;2.63;2.03;;;3.80;99.90;;;;;;4989339;28;20071;-76
2021/01/25 02:55:59;;;;;;;3.05;2.30;;;3.80;99.90;;;;;;4989190;28;20029;-76
2021/01/25 02:58:25;;;;;;;2.80;2.38;;;3.80;99.90;;;;;;4989165;28;20050;-76
2021/01/25 03:00:52;;;;;;;2.92;2.10;;;3.80;99.90;;;;;;4989226;28;20061;-76
2021/01/25 03:03:19;;;;;;;3.38;2.38;;;3.80;99.90;;;;;;4988728;28;20027;-76
2021/01/25 03:05:46;;;;;;;3.60;2.55;;;3.90;99.90;;;;;;4988752;28;20050;-76
2021/01/25 03:08:13;;;;;;;3.65;2.88;;;3.90;99.90;;;;;;4989001;28;20080;-75
2021/01/25 03:10:39;;;;;;;2.38;2.10;;;3.90;99.90;;;;;;4989106;28;20023;-75
2021/01/25 03:13:05;;;;;;;3.70;2.67;;;3.70;99.90;;;;;;4989057;28;20531;-75
2021/01/25 03:15:36;;;;;;;3.30;2.40;;;3.70;99.90;;;;;;4988934;28;20022;-76
2021/01/25 03:18:05;;;;;;;2.47;2.25;;;3.70;99.90;;;;;;4989021;28;20023;-76
2021/01/25 03:20:31;;;;;;;9.25;3.08;;;3.80;99.90;;;;;;4988919;28;20431;-77
2021/01/25 03:22:57;;;;;;;3.75;2.55;;;3.80;99.90;;;;;;4989282;28;20026;-76
2021/01/25 03:25:23;;;;;;;3.30;2.47;;;3.80;99.90;;;;;;4989044;28;20376;-77
2021/01/25 03:27:49;;;;;;;2.72;2.45;;;3.80;99.90;;;;;;4989108;28;20029;-76
2021/01/25 03:30:15;;;;;;;4.40;3.00;;;3.80;99.90;;;;;;4989152;28;20023;-77
2021/01/25 03:32:42;;;;;;;4.38;2.97;;;3.70;99.90;;;;;;4989091;28;20133;-77
2021/01/25 03:35:09;;;;;;;4.78;3.60;;;3.70;99.90;;;;;;4989141;28;20369;-77
2021/01/25 03:37:36;;;;;;;4.65;3.20;;;3.70;99.90;;;;;;4988972;28;20037;-77
2021/01/25 03:40:06;;;;;;;5.97;3.22;;;3.60;99.90;;;;;;4988363;28;20068;-76
2021/01/25 03:42:32;;;;;;;6.10;3.60;;;3.60;99.90;;;;;;4988387;28;20022;-77
2021/01/25 03:44:58;;;;;;;5.50;3.42;;;3.60;99.90;;;;;;4988434;28;20037;-77
2021/01/25 03:47:24;;;;;;;4.47;3.25;;;3.60;99.90;;;;;;4988516;28;20445;-76
2021/01/25 03:49:50;;;;;;;3.80;2.80;;;3.60;99.90;;;;;;4989211;28;20097;-77
2021/01/25 03:52:16;;;;;;;7.38;4.32;;;3.70;99.90;;;;;;4988762;28;20069;-77
2021/01/25 03:54:41;;;;;;;3.63;3.17;;;3.70;99.90;;;;;;4989234;28;20041;-76
2021/01/25 03:57:07;;;;;;;4.32;3.17;;;3.60;99.90;;;;;;4988673;28;20075;-76
2021/01/25 03:59:33;;;;;;;3.55;2.85;;;3.70;99.90;;;;;;5056257;28;20615;-76
2021/01/25 04:01:59;;;;;;;4.22;2.65;;;3.80;99.90;;;;;;4988808;28;20113;-76
2021/01/25 04:04:25;;;;;;;3.80;2.90;;;3.70;99.90;;;;;;4988748;28;20027;-76
2021/01/25 04:06:51;;;;;;;4.38;2.67;;;3.80;99.90;;;;;;4988532;28;20058;-76
2021/01/25 04:09:17;;;;;;;4.47;3.65;;;3.80;99.90;;;;;;4988549;28;20058;-77
2021/01/25 04:11:43;;;;;;;4.82;3.05;;;3.80;99.90;;;;;;4988581;28;20027;-76
2021/01/25 04:14:12;;;;;;;7.55;4.45;;;3.80;99.90;;;;;;4988428;28;20034;-77
2021/01/25 04:16:38;;;;;;;4.47;2.92;;;3.90;99.90;;;;;;4990190;28;20026;-76
2021/01/25 04:19:05;;;;;;;8.68;3.58;;;3.80;99.90;;;;;;4991571;28;20393;-76
2021/01/25 04:21:31;;;;;;;4.70;3.30;;;3.90;99.90;;;;;;4991805;28;20025;-77
2021/01/25 04:23:56;;;;;;;4.93;3.30;;;3.90;99.90;;;;;;4991825;28;20026;-77
2021/01/25 04:26:22;;;;;;;3.15;2.35;;;3.90;99.90;;;;;;4991762;28;20054;-76
2021/01/25 04:28:48;;;;;;;4.68;3.10;;;3.90;99.90;;;;;;4991562;28;20489;-77
2021/01/25 04:31:14;;;;;;;6.07;3.47;;;3.90;99.90;;;;;;4991735;28;20053;-77
2021/01/25 04:33:40;;;;;;;5.05;3.65;;;3.90;99.90;;;;;;4991719;28;20101;-77
2021/01/25 04:36:07;;;;;;;6.55;4.13;;;3.80;99.90;;;;;;4991635;28;20053;-76
2021/01/25 04:38:33;;;;;;;8.70;3.67;;;3.80;99.90;;;;;;4991747;28;20058;-77
2021/01/25 04:40:59;;;;;;;5.90;3.45;;;3.80;99.90;;;;;;4991309;28;20015;-76
2021/01/25 04:43:26;;;;;;;7.28;4.25;;;3.80;99.90;;;;;;5058834;28;20538;-77
2021/01/25 04:45:54;;;;;;;4.18;2.88;;;3.80;99.90;;;;;;4991537;28;20068;-76
2021/01/25 04:48:22;;;;;;;8.02;3.80;;;3.80;99.90;;;;;;4991339;28;20469;-76
2021/01/25 04:50:50;;;;;;;12.13;5.60;;;3.90;99.90;;;;;;4991290;28;20076;-76
2021/01/25 04:53:16;;;;;;;16.63;7.28;;;3.90;99.90;;;;;;4991255;28;20037;-76
2021/01/25 04:55:43;;;;;;;8.70;5.57;;;3.90;99.90;;;;;;4991215;28;20030;-76
2021/01/25 04:58:10;;;;;;;13.02;6.78;;;4.00;99.90;;;;;;4991053;28;20110;-76
2021/01/25 05:00:36;;;;;;;9.38;4.97;;;3.90;99.90;;;;;;5058231;28;20027;-76
2021/01/25 05:03:01;;;;;;;19.15;8.15;;;3.90;99.90;;;;;;4991023;28;20105;-77
2021/01/25 05:05:27;;;;;;;8.57;6.20;;;3.80;99.90;;;;;;4990628;28;20574;-76
2021/01/25 05:07:53;;;;;;;9.32;6.25;;;3.90;99.90;;;;;;4990955;28;20031;-76
2021/01/25 05:10:19;;;;;;;11.55;6.30;;;3.90;99.90;;;;;;4990857;28;20438;-76
2021/01/25 05:12:46;;;;;;;11.73;7.53;;;3.90;99.90;;;;;;4990899;28;20045;-76
2021/01/25 05:15:25;;;;;;;9.27;5.43;;;3.90;99.90;;;;;;5057990;28;20035;-76
2021/01/25 05:17:51;;;;;;;8.18;4.72;;;3.90;99.90;;;;;;4990644;28;20048;-76
2021/01/25 05:20:16;;;;;;;8.10;4.95;;;3.90;99.90;;;;;;4990436;28;20030;-76
2021/01/25 05:22:42;;;;;;;13.60;6.95;;;3.90;99.90;;;;;;4990642;28;20084;-76
2021/01/25 05:25:09;;;;;;;10.00;6.13;;;4.00;99.90;;;;;;4990725;28;20466;-76
2021/01/25 05:27:35;;;;;;;10.32;6.00;;;3.90;99.90;;;;;;4990312;28;20535;-76
2021/01/25 05:30:08;;;;;;;13.48;7.95;;;3.90;99.90;;;;;;4990517;28;20093;-76
2021/01/25 05:32:52;;;;;;;9.23;7.65;;;3.90;99.90;;;;;;4990502;28;20524;-76
2021/01/25 05:35:22;;;;;;;8.45;6.40;;;3.90;99.90;;;;;;4990589;28;20026;-76
2021/01/25 05:38:02;;;;;;;;;;;3.90;99.90;;;;;;4990566;28;20030;-76
2021/01/25 05:40:30;;;;;;;15.05;7.78;;;3.80;99.90;;;;;;4990396;28;19909;-76
2021/01/25 05:42:56;;;;;;;14.98;9.48;;;3.80;99.90;;;;;;4990280;28;20550;-76
2021/01/25 05:45:24;;;;;;;13.75;8.30;;;3.90;99.90;;;;;;4990344;28;20027;-76
2021/01/25 05:47:51;;;;;;;10.32;6.50;;;3.90;99.90;;;;;;4990097;28;20095;-76
2021/01/25 05:50:32;;;;;;;22.48;7.28;;;3.90;99.90;;;;;;4990268;28;20057;-77
2021/01/25 05:52:58;;;;;;;;;;;3.90;99.90;;;;;;4990283;28;20031;-76
2021/01/25 05:55:25;;;;;;;13.77;9.45;;;3.90;99.90;;;;;;4989819;28;19935;-76
2021/01/25 05:57:51;;;;;;;18.65;12.38;;;3.90;99.90;;;;;;4989842;28;20022;-76
2021/01/25 06:00:18;;;;;;;14.38;9.90;;;3.90;99.90;;;;;;4990053;28;20026;-76
2021/01/25 06:02:48;;;;;;;14.80;10.35;;;3.90;99.90;;;;;;5057186;28;20540;-76
2021/01/25 06:05:22;;;;;;;19.52;11.80;;;3.80;99.90;;;;;;5069850;28;20048;-76
2021/01/25 06:07:50;;;;;;;18.38;12.18;;;3.90;99.90;;;;;;4997304;28;20892;-76
2021/01/25 06:10:21;;;;;;;22.80;13.95;;;3.80;99.90;;;;;;4989656;28;20030;-76
2021/01/25 06:12:56;;;;;;;13.68;9.70;;;3.90;99.90;;;;;;4989665;28;20120;-76
2021/01/25 06:15:28;;;;;;;24.42;9.80;;;3.90;99.90;;;;;;4989880;28;20026;-76
2021/01/25 06:17:57;;;;;;;15.65;9.57;;;4.00;99.90;;;;;;4989761;28;20041;-76
2021/01/25 06:20:27;;;;;;;38.15;15.00;;;3.90;99.90;;;;;;4990106;28;20026;-76
2021/01/25 06:22:53;;;;;;;22.80;14.88;;;4.00;99.90;;;;;;4989703;28;20053;-76
2021/01/25 06:25:20;;;;;;;21.88;14.50;;;3.90;99.90;;;;;;4989600;28;20023;-76
2021/01/25 06:27:46;;;;;;;24.63;16.50;;;4.00;99.90;;;;;;4989789;28;20527;-76
2021/01/25 06:30:13;;;;;;;32.65;18.20;;;4.00;99.90;;;;;;4989641;28;20027;-77
2021/01/25 06:32:40;;;;;;;28.75;18.33;;;3.90;99.90;;;;;;4989546;28;20067;-76
2021/01/25 06:35:11;;;;;;;17.85;13.43;;;4.00;99.90;;;;;;4989571;28;20041;-77
2021/01/25 06:37:37;;;;;;;33.30;19.58;;;3.90;99.90;;;;;;4989476;28;20042;-76
2021/01/25 06:40:11;;;;;;;26.00;18.63;;;4.00;99.90;;;;;;5055961;28;20036;-76
2021/01/25 06:42:39;;;;;;;43.85;25.80;;;3.90;99.90;;;;;;4989594;28;20023;-76
2021/01/25 06:45:07;;;;;;;35.13;20.00;;;3.90;99.90;;;;;;4989517;28;20031;-76
2021/01/25 06:47:35;;;;;;;32.53;19.17;;;3.90;99.90;;;;;;4989492;28;20095;-76
2021/01/25 06:50:03;;;;;;;41.60;24.42;;;3.90;99.90;;;;;;4989311;28;20087;-76
2021/01/25 06:52:32;;;;;;;70.38;34.88;;;3.90;99.90;;;;;;4989126;28;20030;-76
2021/01/25 06:55:00;;;;;;;53.65;29.17;;;3.90;99.90;;;;;;4989371;28;20035;-77
2021/01/25 06:57:27;;;;;;;58.35;29.83;;;3.90;99.90;;;;;;4988979;28;20023;-76
2021/01/25 06:59:55;;;;;;;37.03;19.27;;;4.00;99.90;;;;;;4989291;28;20034;-77
2021/01/25 07:02:23;;;;;;;45.28;24.77;;;3.90;99.90;;;;;;4989175;28;20026;-76
2021/01/25 07:04:51;;;;;;;49.85;26.95;;;3.90;99.90;;;;;;4989144;28;20040;-76
2021/01/25 07:07:28;;;;;;;53.17;27.75;;;3.90;99.90;;;;;;4988877;28;20077;-76
2021/01/25 07:09:57;;;;;;;62.45;34.13;;;4.00;99.90;;;;;;4989092;28;20058;-76
2021/01/25 07:12:26;;;;;;;75.50;34.25;;;4.00;99.90;;;;;;4989399;28;20056;-77
2021/01/25 07:14:53;;;;;;;44.25;28.15;;;4.00;99.90;;;;;;4988874;28;20037;-76
2021/01/25 07:17:19;;;;;;;55.72;32.35;;;4.00;99.90;;;;;;4989072;28;20466;-76
2021/01/25 07:19:45;;;;;;;37.50;24.13;;;4.00;99.90;;;;;;4988790;28;20042;-76
2021/01/25 07:22:11;;;;;;;38.15;25.00;;;4.00;99.90;;;;;;4988862;28;20027;-76
2021/01/25 07:24:38;;;;;;;30.58;18.85;;;4.00;99.90;;;;;;4988963;28;20022;-76
2021/01/25 07:27:05;;;;;;;24.60;17.13;;;4.00;99.90;;;;;;4989019;28;20058;-76
2021/01/25 07:29:31;;;;;;;23.15;16.00;;;4.00;99.90;;;;;;4988956;28;20105;-76
2021/01/25 07:31:58;;;;;;;31.08;19.52;;;4.10;99.90;;;;;;4988785;28;20133;-76
2021/01/25 07:34:25;;;;;;;34.40;20.75;;;4.10;99.90;;;;;;4989035;28;20034;-76
2021/01/25 07:36:52;;;;;;;32.00;18.95;;;4.20;99.90;;;;;;5055904;28;20772;-75
2021/01/25 07:39:19;;;;;;;29.17;17.40;;;4.20;99.90;;;;;;4988977;28;20801;-76
2021/01/25 07:41:46;;;;;;;26.70;16.70;;;4.30;99.90;;;;;;4988563;28;20026;-76
2021/01/25 07:44:13;;;;;;;17.40;11.60;;;4.30;99.90;;;;;;4988669;28;20026;-76
2021/01/25 07:46:40;;;;;;;23.48;14.50;;;4.40;99.90;;;;;;4988799;28;20794;-77
2021/01/25 07:49:07;;;;;;;21.70;10.70;;;4.40;99.90;;;;;;4988837;28;20042;-76
2021/01/25 07:51:34;;;;;;;18.75;12.77;;;4.50;99.90;;;;;;4992023;28;20127;-77
2021/01/25 07:54:01;;;;;;;27.63;16.05;;;4.50;99.90;;;;;;5059851;28;20818;-77
2021/01/25 07:56:28;;;;;;;29.13;17.05;;;4.60;99.90;;;;;;5058997;28;20065;-76
2021/01/25 07:59:05;;;;;;;97.50;18.95;;;4.60;99.90;;;;;;4991934;28;20057;-76
2021/01/25 08:01:53;;;;;;;58.95;17.83;;;5.10;99.90;;;;;;4991951;28;20026;-77
2021/01/25 08:04:27;;;;;;;36.13;17.80;;;5.30;99.90;;;;;;5058863;28;20122;-77
2021/01/25 08:06:56;;;;;;;57.60;19.25;;;5.50;99.90;;;;;;4991438;28;20061;-76
2021/01/25 08:09:22;;;;;;;663.95;336.77;;;5.60;99.90;;;;;;5014338;28;20095;-77
2021/01/25 08:11:49;;;;;;;459.08;267.70;;;5.60;99.90;;;;;;4990963;28;20035;-77
2021/01/25 08:14:35;;;;;;;127.18;67.63;;;5.70;99.90;;;;;;4991765;28;20105;-77
2021/01/25 08:17:31;;;;;;;179.75;116.40;;;5.70;99.90;;;;;;4990970;28;20113;-77
2021/01/25 08:20:08;;;;;;;55.15;30.52;;;5.90;99.90;;;;;;4985990;28;20103;-76
2021/01/25 08:22:47;;;;;;;14.65;8.90;;;6.10;99.90;;;;;;4989941;28;20041;-76
2021/01/25 08:25:19;;;;;;;24.65;14.73;;;5.80;99.00;;;;;;4989112;28;20026;-76
2021/01/25 08:28:14;;;;;;;23.90;15.68;;;5.70;99.90;;;;;;4990573;28;20030;-76
2021/01/25 08:30:50;;;;;;;13.82;9.13;;;5.70;99.90;;;;;;4990432;28;20023;-76
2021/01/25 08:33:31;;;;;;;20.10;12.20;;;5.70;99.90;;;;;;4991002;28;20109;-76
2021/01/25 08:36:00;;;;;;;41.65;22.25;;;5.70;99.90;;;;;;4990913;28;20095;-75
2021/01/25 08:38:28;;;;;;;35.90;21.20;;;5.90;99.90;;;;;;4990529;28;20489;-75
2021/01/25 08:40:57;;;;;;;28.15;17.83;;;6.10;99.50;;;;;;4991069;28;20514;-77
2021/01/25 08:43:30;;;;;;;31.27;20.73;;;6.20;99.90;;;;;;4991345;28;20167;-77
2021/01/25 08:46:14;;;;;;;20.55;12.82;;;6.30;99.90;;;;;;4991266;28;20068;-77
2021/01/25 08:48:41;;;;;;;26.88;18.42;;;6.20;98.00;;;;;;4991046;28;20026;-77
2021/01/25 08:51:14;;;;;;;21.73;13.68;;;6.40;99.50;;;;;;4989763;28;20083;-77
2021/01/25 08:53:40;;;;;;;22.83;13.57;;;6.40;98.90;;;;;;4990931;28;20030;-77
2021/01/25 08:56:19;;;;;;;18.38;12.88;;;6.60;98.50;;;;;;4989708;28;20030;-77
2021/01/25 08:58:45;;;;;;;13.65;8.90;;;6.70;98.30;;;;;;4972194;28;20026;-77
2021/01/25 09:01:27;;;;;;;15.25;8.65;;;7.00;96.20;;;;;;5056981;28;20130;-76
2021/01/25 09:03:53;;;;;;;24.73;14.95;;;7.00;94.40;;;;;;4990721;28;20056;-76
2021/01/25 09:06:19;;;;;;;27.92;15.43;;;7.00;94.30;;;;;;4990417;28;20109;-76
2021/01/25 09:08:44;;;;;;;13.32;6.80;;;7.10;97.20;;;;;;4990308;28;20056;-76
2021/01/25 09:11:10;;;;;;;18.25;10.95;;;7.30;94.10;;;;;;4990027;28;20023;-76
2021/01/25 09:13:36;;;;;;;29.40;17.50;;;7.50;96.30;;;;;;4990280;28;20103;-76
2021/01/25 09:16:02;;;;;;;18.17;11.50;;;7.50;94.00;;;;;;4990198;28;20109;-76
2021/01/25 09:18:30;;;;;;;13.55;8.05;;;7.70;94.30;;;;;;4990008;28;20026;-75
2021/01/25 09:20:56;;;;;;;40.78;21.40;;;7.70;89.50;;;;;;4989955;28;20095;-75
2021/01/25 09:23:22;;;;;;;9.13;5.25;;;7.60;88.00;;;;;;4990132;28;20503;-75
2021/01/25 09:25:48;;;;;;;10.98;7.43;;;7.50;84.40;;;;;;4990268;28;20113;-75
2021/01/25 09:28:14;;;;;;;21.48;12.27;;;7.80;90.90;;;;;;5057239;28;20084;-76
2021/01/25 09:30:41;;;;;;;15.40;8.70;;;7.90;89.70;;;;;;4989960;28;20462;-75
2021/01/25 09:33:06;;;;;;;13.77;8.20;;;8.00;89.70;;;;;;4989981;28;20453;-75
2021/01/25 09:35:32;;;;;;;18.20;10.88;;;8.10;89.90;;;;;;4990104;28;20113;-75
2021/01/25 09:37:59;;;;;;;68.50;31.15;;;8.20;85.90;;;;;;5016152;28;20036;-77
2021/01/25 09:40:26;;;;;;;35.88;20.80;;;8.90;99.90;;;;;;5071703;28;20021;-75
2021/01/25 09:42:51;;;;;;;50.28;28.50;;;9.30;82.10;;;;;;5072164;28;20070;-75
2021/01/25 09:45:18;;;;;;;24.80;15.48;;;9.20;84.50;;;;;;5072363;28;20025;-74
2021/01/25 09:47:45;;;;;;;23.15;13.45;;;9.70;81.90;;;;;;5072183;28;20059;-74
2021/01/25 09:50:14;;;;;;;39.83;23.60;;;9.20;77.10;;;;;;5072085;28;20069;-75
2021/01/25 09:52:41;;;;;;;26.10;15.38;;;8.90;76.00;;;;;;5072053;28;20020;-74
2021/01/25 09:55:07;;;;;;;17.25;9.07;;;8.90;78.20;;;;;;5052576;28;20032;-74
2021/01/25 09:57:33;;;;;;;21.20;12.05;;;8.80;78.40;;;;;;5027009;28;20143;-75
2021/01/25 09:59:59;;;;;;;34.40;16.95;;;9.00;83.20;;;;;;5058844;28;20526;-75
2021/01/25 10:02:25;;;;;;;37.72;20.50;;;9.30;89.40;;;;;;4997629;28;20035;-75
2021/01/25 10:04:51;;;;;;;9.25;6.07;;;9.50;80.80;;;;;;4989720;28;20027;-75
2021/01/25 10:07:17;;;;;;;32.05;18.92;;;9.50;81.70;;;;;;4989263;28;20057;-75
2021/01/25 10:09:43;;;;;;;27.95;15.02;;;9.40;78.50;;;;;;5056426;28;20141;-75
2021/01/25 10:12:08;;;;;;;18.63;11.13;;;9.40;78.30;;;;;;4989609;28;20540;-75
2021/01/25 10:14:34;;;;;;;11.07;7.00;;;9.60;80.20;;;;;;4988461;28;20026;-75
2021/01/25 10:17:00;;;;;;;7.93;5.22;;;9.60;78.70;;;;;;4989547;28;20117;-75
2021/01/25 10:19:26;;;;;;;10.00;6.28;;;9.60;78.20;;;;;;4989321;28;20022;-75
2021/01/25 10:21:52;;;;;;;134.18;72.95;;;9.60;78.20;;;;;;4989478;28;20053;-75
2021/01/25 10:24:17;;;;;;;24.73;15.93;;;9.90;77.40;;;;;;4989305;28;20077;-75
2021/01/25 10:26:43;;;;;;;22.95;14.75;;;10.00;77.80;;;;;;4989222;28;20076;-75
2021/01/25 10:29:09;;;;;;;21.63;11.25;;;10.10;75.60;;;;;;4989231;28;20489;-75
2021/01/25 10:31:35;;;;;;;9.32;5.60;;;10.10;74.60;;;;;;4989136;28;20029;-75
2021/01/25 10:34:01;;;;;;;20.23;10.52;;;10.10;70.50;;;;;;5090177;28;20035;-75
2021/01/25 10:36:26;;;;;;;18.63;10.70;;;10.30;70.10;;;;;;4989620;28;20443;-75
2021/01/25 10:38:52;;;;;;;9.02;5.65;;;10.20;71.60;;;;;;4993134;28;20083;-74
2021/01/25 10:41:20;;;;;;;10.45;5.68;;;10.20;70.80;;;;;;4988948;28;20097;-74
2021/01/25 10:43:46;;;;;;;10.30;5.93;;;10.00;70.00;;;;;;4989006;28;20485;-74
2021/01/25 10:46:14;;;;;;;27.50;20.13;;;9.80;68.60;;;;;;4989103;28;20023;-74
2021/01/25 10:48:39;;;;;;;23.60;14.40;;;9.70;71.20;;;;;;4988878;28;20042;-75
2021/01/25 10:51:05;;;;;;;24.42;13.90;;;9.70;70.90;;;;;;4988829;28;20033;-75
2021/01/25 11:15:19;;;;;;;5.90;3.80;;;9.80;70.70;;;;;;5102647;27;20413;-78
2021/01/25 11:17:45;;;;;;;6.95;3.45;;;9.90;67.70;;;;;;5102617;28;20108;-78
2021/01/25 11:20:12;;;;;;;23.40;11.45;;;9.80;67.80;;;;;;5097076;28;20035;-77
2021/01/25 11:22:37;;;;;;;34.80;17.67;;;9.80;68.20;;;;;;5100786;28;20028;-77
2021/01/25 11:25:04;;;;;;;43.50;22.85;;;9.80;68.10;;;;;;5107354;28;20047;-77
2021/01/25 11:27:30;;;;;;;6.13;3.58;;;9.70;66.90;;;;;;5106680;28;20024;-78
2021/01/25 11:29:56;;;;;;;16.55;9.38;;;9.60;65.10;;;;;;5107830;28;20493;-76
2021/01/25 11:32:22;;;;;;;5.32;3.05;;;9.50;67.60;;;;;;5107626;28;20026;-76
2021/01/25 11:34:47;;;;;;;5.60;3.17;;;9.40;66.00;;;;;;5106585;28;20031;-76
2021/01/25 11:37:14;;;;;;;17.83;7.88;;;9.50;67.70;;;;;;5107848;28;20478;-75
2021/01/25 11:39:41;;;;;;;38.63;23.50;;;9.60;70.40;;;;;;5106539;28;20051;-75
2021/01/25 11:42:07;;;;;;;11.00;6.20;;;10.50;92.80;;;;;;5107798;28;20077;-73
2021/01/25 11:44:33;;;;;;;10.00;4.85;;;10.60;73.20;;;;;;5107757;28;20063;-76
2021/01/25 11:46:59;;;;;;;10.57;5.57;;;10.20;69.80;;;;;;5107769;28;20077;-74
2021/01/25 11:49:25;;;;;;;5.63;2.97;;;9.90;71.80;;;;;;5107829;28;20028;-77
2021/01/25 11:51:51;;;;;;;5.22;3.22;;;9.70;70.80;;;;;;5107649;28;20551;-78
2021/01/25 11:54:18;;;;;;;11.15;6.57;;;9.60;72.30;;;;;;5106170;28;20062;-77
2021/01/25 11:56:44;;;;;;;5.45;3.92;;;9.50;71.50;;;;;;5107406;28;20042;-77
2021/01/25 11:59:10;;;;;;;3.40;2.28;;;9.50;74.70;;;;;;5107688;28;20024;-77
2021/01/25 12:01:37;;;;;;;337.13;160.80;;;9.50;70.70;;;;;;5107754;28;20759;-77
2021/01/25 12:04:04;;;;;;;26.73;15.27;;;9.40;71.10;;;;;;5107162;28;20024;-77
2021/01/25 12:06:29;;;;;;;7.30;4.40;;;9.30;72.60;;;;;;5106287;28;20032;-77
2021/01/25 12:08:55;;;;;;;15.70;8.02;;;9.30;72.00;;;;;;5107443;28;20099;-77
2021/01/25 12:11:21;;;;;;;23.17;15.07;;;9.20;73.30;;;;;;5107357;28;20081;-77
2021/01/25 12:13:47;;;;;;;17.10;7.95;;;9.20;77.10;;;;;;5107236;28;20093;-76
2021/01/25 12:16:15;;;;;;;17.00;9.85;;;9.60;98.10;;;;;;5093854;28;20024;-76
2021/01/25 12:18:45;;;;;;;12.15;5.72;;;9.70;74.80;;;;;;5092273;28;20394;-77
2021/01/25 12:21:12;;;;;;;9.55;4.65;;;9.50;73.90;;;;;;5090028;28;20039;-76
2021/01/25 12:23:38;;;;;;;9.90;2.88;;;9.40;72.80;;;;;;5091963;28;20036;-76
2021/01/25 12:26:04;;;;;;;5.22;2.25;;;9.30;72.00;;;;;;5093174;28;20032;-77
2021/01/25 12:28:31;;;;;;;5.55;2.53;;;9.10;73.10;;;;;;5093114;28;20028;-78
2021/01/25 12:30:58;;;;;;;6.38;3.88;;;9.10;75.70;;;;;;5092079;28;20063;-76
2021/01/25 12:33:23;;;;;;;17.58;10.13;;;9.00;72.60;;;;;;5091958;28;20032;-73
2021/01/25 12:35:49;;;;;;;41.88;22.48;;;9.20;78.50;;;;;;5093260;28;20028;-76
2021/01/25 12:38:16;;;;;;;36.92;19.75;;;9.20;71.40;;;;;;5093286;28;20020;-76
2021/01/25 12:40:41;;;;;;;19.65;10.63;;;9.10;72.90;;;;;;5093231;28;20024;-76
2021/01/25 12:43:07;;;;;;;13.80;7.43;;;9.00;73.00;;;;;;5093070;28;20028;-76
2021/01/25 12:45:34;;;;;;;13.82;7.18;;;8.90;70.60;;;;;;5093200;28;20020;-75
2021/01/25 12:47:59;;;;;;;9.43;6.05;;;8.90;71.20;;;;;;5093160;28;20016;-76
2021/01/25 12:50:25;;;;;;;11.27;7.05;;;8.70;71.10;;;;;;5093024;28;20481;-76
2021/01/25 12:52:53;;;;;;;12.15;6.25;;;8.60;71.50;;;;;;5092800;28;20040;-75
2021/01/25 12:55:19;;;;;;;18.52;10.20;;;8.50;70.20;;;;;;5092846;28;20024;-76
2021/01/25 12:57:47;;;;;;;29.38;13.63;;;8.50;72.60;;;;;;5093408;28;20056;-76
2021/01/25 13:00:23;;;;;;;27.25;12.77;;;8.60;72.80;;;;;;5092512;28;20496;-76
2021/01/25 13:02:48;;;;;;;25.30;12.38;;;8.60;74.70;;;;;;5092747;28;20063;-76
2021/01/25 13:05:15;;;;;;;11.25;5.38;;;8.50;72.60;;;;;;5092801;28;20429;-76
2021/01/25 13:07:42;;;;;;;6.82;3.88;;;8.50;70.80;;;;;;5092737;28;20068;-77
2021/01/25 13:10:09;;;;;;;8.98;4.78;;;8.50;71.30;;;;;;5092573;28;20012;-76
2021/01/25 13:12:38;;;;;;;15.32;7.90;;;8.50;71.60;;;;;;5092735;28;20142;-76